Richard Lloyd Jones Jr Airport
KRVS : now visible

Airfield :











YOU CAN JOIN US ON...

 
LOGIN :

Register | Disclaimer

   EN    FR    IT 

 









Legend :    VFR   Marginal VFR   IFR   Intensive IFR   Very Intensive IFR
Visi :
Ceiling :
>= 8 km
>= 3000ft
5 to 8 km
1000 to 3000 ft
1500m to 5 km
500 to 1000 ft
800 to 1500m
200 to 500 ft
< 800m
< 200 ft
Symbols :   Thunderstorms  Fog  Heavy snow  Heavy precipitations  Wind > 20 kt







- Airport Elevation : 638 ft


KRVS - Richard Lloyd Jones Jr

CURRENT METAR :
  • 221153Z 18011KT 10SM CLR 18/13 A2995 RMK AO2 SLP145 T01830133 10211 20183 53019

EXPIRED METARs :
  • 221053Z AUTO 18010KT 10SM CLR 19/13 A2992 RMK AO2 SLP135 T01890128
  • 220953Z AUTO 17009KT 10SM CLR 19/13 A2990 RMK AO2 SLP129 T01890128

TAF KRVS
Valid from the 22 at 12:00 until the 23 at 12:00 UTC


221120Z 2212/2312 17010KT P6SM FEW025
FM221300 19010G18KT P6SM BKN025
FM222000 20010KT P6SM BKN035
PROB30 2303/2306 5SM -TSRA BR BKN025CB
FM230600 01008KT P6SM BKN025
TEMPO 2306/2310 4SM TSRA OVC015CB
KZKC FIR / North America



MET'MAP, your aeronautical weather chart ! - Copyright ORBIFLY December 2007 - Disclaimer

ORBIFLY MET'MAP TEAM :

Programming & Development : Alexandra Zaïnal
Concept & Development : Baudouin d'Aumeries
Co-Development & Prog : Marc-Olivier Méhu
Technical & hardware support : Manuel Goepfert

Contact : metmap@orbifly.com




SOURCES & CREDITS :

   NOAA       Earth
Advisory